Startpagina
METAR-TAF:

METAR-TAF

Vliegvelden :

Flughafen Bern-Belp

Bern, Zwitserland

breedte: 46-55N, lengte: 007-30E, hoogte: 505 m

Actueel weer

Dit bericht is 23 minuten geleden gemaakt, om 20:20 UTC
Wind 1 kt uit variabele richting
Temperatuur 17°C
Vochtigheid 100%
Druk 1020 hPa
Zicht: 8000 m

METAR: LSZB 182020Z AUTO VRB01KT 8000 NCD 17/17 Q1020

Tijdstip: 22:43 (20:43 UTC)

Verwachting

Dit bericht is 6 uur en het 18 minuten geleden gemaakt, om 14:25 UTC
Verwachting geldig van 18 om 15 UTC tot 18 om 24 UTC
Wind 6 kt uit het noordwesten
Zicht 10 km of meer
geen wolken onder 1500 m en geen cumulonimbus

TAF: LSZB 181425Z 1815/1824 31006KT CAVOK

Waarnemingen en weersverwachtingen van meer dan 4000 vliegvelden (METAR en TAF).

De beschikbare stations zijn de gele en rode punten op de kaart.

Ga met uw muis naar het station om de naam te zien.

Klik dan om waarnemingen en weersverwachtingen te zien.

kaart wijzigen: klik op de groene knoppen met een zwart kruis om in te zoomen, op de groene knop met een streepje om uit te zoomen of op de groene pijlen voor aangrenzende kaarten.


METAR-TAF: